This is the latest recevied weather packets stored in our database for station/object DO7ZT-13. If no packets are shown the sender has not sent any weather packets the latest 10 day(s).
| Time | Temp. | Humidity | Pressure | Rain* | Wind** | Luminosity | Snow |
|---|---|---|---|---|---|---|---|
| 1777738815 | 23.89° C | 22% | 1018.5 hPa | 0 mm | 0.45 m/s, 186° | - | - |
| 1777738503 | 23.89° C | 22% | 1018.7 hPa | 0 mm | 1.34 m/s, 140° | - | - |
| 1777738215 | 23.89° C | 21% | 1018.7 hPa | 0 mm | 1.34 m/s, 173° | - | - |
| 1777737903 | 23.89° C | 21% | 1018.7 hPa | 0 mm | 0.89 m/s, 174° | - | - |
| 1777737615 | 23.89° C | 21% | 1019.1 hPa | 0 mm | 0.89 m/s, 261° | - | - |
| 1777737302 | 23.89° C | 22% | 1019.1 hPa | 0 mm | 0.89 m/s, 155° | - | - |
| 1777737015 | 23.89° C | 23% | 1019.1 hPa | 0 mm | 0.89 m/s, 150° | - | - |
| 1777736702 | 23.89° C | 22% | 1019.1 hPa | 0 mm | 0.89 m/s, 187° | - | - |
| 1777736415 | 23.89° C | 25% | 1019.1 hPa | 0 mm | 0.45 m/s, 156° | - | - |
| 1777736102 | 23.89° C | 22% | 1019.1 hPa | 0 mm | 0 m/s | - | - |
| 1777735815 | 23.89° C | 23% | 1019.3 hPa | 0 mm | 0.89 m/s, 197° | - | - |
| 1777735502 | 23.89° C | 25% | 1019.3 hPa | 0 mm | 0.89 m/s, 179° | - | - |
| 1777735215 | 23.89° C | 23% | 1019.3 hPa | 0 mm | 0.45 m/s, 214° | - | - |
| 1777734902 | 23.89° C | 22% | 1019.3 hPa | 0 mm | 1.79 m/s, 206° | - | - |
| 1777734615 | 23.89° C | 24% | 1019.3 hPa | 0 mm | 1.34 m/s, 144° | - | - |
| 1777734303 | 23.89° C | 23% | 1019.3 hPa | 0 mm | 1.34 m/s, 141° | - | - |
| 1777734016 | 23.89° C | 23% | 1019.6 hPa | 0 mm | 0.89 m/s, 198° | - | - |
| 1777733703 | 23.89° C | 24% | 1019.6 hPa | 0 mm | 1.79 m/s, 165° | - | - |
| 1777733415 | 23.89° C | 24% | 1019.6 hPa | 0 mm | 1.34 m/s, 172° | - | - |
| 1777733102 | 23.89° C | 23% | 1019.9 hPa | 0 mm | 0.89 m/s, 264° | - | - |
| 1777732815 | 23.89° C | 26% | 1019.9 hPa | 0 mm | 0.89 m/s, 178° | - | - |
| 1777732502 | 23.89° C | 25% | 1019.9 hPa | 0 mm | 1.34 m/s, 144° | - | - |
| 1777732228 | 23.89° C | 22% | 1020 hPa | 0 mm | 0.89 m/s, 179° | - | - |
| 1777731915 | 23.89° C | 23% | 1020 hPa | 0 mm | 0.89 m/s, 146° | - | - |
| 1777731603 | 23.89° C | 23% | 1020 hPa | 0 mm | 0.89 m/s, 246° | - | - |
* Rain latest hour (hover to see other rain measurements)
** Current wind speed in m/s (hover to see current wind gust speed)